Time;durP1;ratioP1;P1;durP2;ratioP2;P2;SDS_P1;SDS_P2;PMS_P1;PMS_P2;Temp;Humidity;BMP_temperature;BMP_pressure;BME280_temperature;BME280_humidity;BME280_pressure;Samples;Min_cycle;Max_cycle;Signal;HPM_P1;HPM_P2
2021/12/20 00:00:59;;;;;;;21.70;8.07;;;9.10;84.20;;;;;;5020964;28;20801;-85
2021/12/20 00:03:25;;;;;;;21.38;7.95;;;9.30;83.90;;;;;;5004401;28;20528;-85
2021/12/20 00:05:51;;;;;;;16.10;7.88;;;9.00;83.60;;;;;;5023159;28;20244;-84
2021/12/20 00:08:17;;;;;;;27.30;9.65;;;8.90;84.10;;;;;;5021787;28;20265;-84
2021/12/20 05:31:36;;;;;;;12.88;2.60;;;9.00;65.10;;;;;;3930047;23;20456;-88
2021/12/20 05:34:02;;;;;;;18.45;3.35;;;9.00;65.50;;;;;;4971225;28;20196;-87
2021/12/20 05:36:28;;;;;;;19.70;2.73;;;9.00;65.70;;;;;;4977484;28;20692;-87
2021/12/20 05:38:53;;;;;;;13.27;3.20;;;8.90;65.60;;;;;;4978170;28;20192;-87
2021/12/20 05:41:19;;;;;;;11.90;2.80;;;8.80;65.30;;;;;;4971478;28;20212;-87
2021/12/20 05:43:45;;;;;;;19.83;2.77;;;8.90;65.20;;;;;;4968959;28;20183;-87
2021/12/20 05:46:11;;;;;;;16.63;2.58;;;8.50;65.20;;;;;;4963395;28;20176;-87
2021/12/20 05:48:37;;;;;;;18.98;3.05;;;8.50;66.00;;;;;;4966738;28;20176;-87
2021/12/20 05:51:03;;;;;;;15.37;3.50;;;8.50;66.10;;;;;;4974708;28;20307;-86
2021/12/20 05:53:29;;;;;;;11.33;3.60;;;8.50;66.20;;;;;;4972091;28;20443;-87
2021/12/20 05:55:54;;;;;;;14.23;3.10;;;8.60;65.90;;;;;;4975547;28;20195;-87
2021/12/20 05:58:20;;;;;;;23.40;3.70;;;8.60;66.30;;;;;;4975704;28;20176;-87
2021/12/20 06:00:46;;;;;;;14.50;2.57;;;8.70;66.10;;;;;;4978367;28;20200;-87
2021/12/20 06:03:11;;;;;;;25.43;3.30;;;8.70;66.00;;;;;;4976643;28;20211;-87
2021/12/20 06:05:42;;;;;;;19.60;2.60;;;8.60;65.70;;;;;;4972776;28;20176;-87
2021/12/20 06:08:09;;;;;;;13.48;2.30;;;8.60;65.70;;;;;;4966407;28;20184;-86
2021/12/20 06:10:35;;;;;;;14.02;3.20;;;8.70;65.50;;;;;;4966200;28;20208;-87
2021/12/20 06:13:02;;;;;;;14.20;3.03;;;8.70;65.40;;;;;;4961622;28;20168;-87
2021/12/20 06:15:28;;;;;;;6.35;2.00;;;8.60;65.20;;;;;;4964057;28;20204;-87
2021/12/20 06:17:54;;;;;;;16.57;4.27;;;8.60;65.50;;;;;;4946572;28;20271;-87
2021/12/20 06:20:20;;;;;;;31.70;4.30;;;8.40;66.00;;;;;;4971178;28;20176;-87
2021/12/20 06:22:46;;;;;;;19.40;5.43;;;8.60;66.00;;;;;;4970615;28;20196;-82
2021/12/20 06:25:12;;;;;;;15.63;2.60;;;8.50;66.30;;;;;;4969318;28;20432;-82
2021/12/20 06:27:38;;;;;;;10.43;2.38;;;8.40;66.40;;;;;;4967109;28;20270;-82
2021/12/20 06:30:08;;;;;;;10.82;3.10;;;8.50;66.70;;;;;;4971416;28;20787;-80
2021/12/20 06:32:35;;;;;;;24.45;3.78;;;8.60;66.40;;;;;;4971445;28;20202;-80
2021/12/20 06:35:02;;;;;;;16.08;3.03;;;8.80;66.30;;;;;;4981138;28;20185;-81
2021/12/20 06:37:27;;;;;;;9.13;2.83;;;8.70;66.00;;;;;;4978879;28;20195;-81
2021/12/20 06:39:53;;;;;;;13.40;3.10;;;8.50;66.00;;;;;;4971070;28;20176;-81
2021/12/20 06:42:19;;;;;;;11.03;3.33;;;8.60;66.00;;;;;;4977278;28;20318;-81
2021/12/20 06:44:44;;;;;;;14.47;2.90;;;8.70;65.50;;;;;;4971583;28;20227;-81
2021/12/20 06:47:11;;;;;;;15.33;3.50;;;8.60;65.50;;;;;;4968138;28;20466;-81
2021/12/20 06:49:36;;;;;;;13.30;3.17;;;8.50;65.30;;;;;;4969164;28;20215;-81
2021/12/20 06:52:03;;;;;;;18.07;3.30;;;8.50;65.60;;;;;;4970604;28;20208;-81
2021/12/20 06:54:29;;;;;;;14.55;3.08;;;8.40;66.00;;;;;;4967799;28;20195;-81
2021/12/20 06:56:55;;;;;;;12.30;3.57;;;8.40;66.20;;;;;;4969523;28;20216;-81
2021/12/20 06:59:22;;;;;;;15.10;2.23;;;8.30;66.60;;;;;;4961379;28;21174;-80
2021/12/20 07:01:48;;;;;;;9.52;2.55;;;8.30;65.90;;;;;;4970641;28;20455;-82
2021/12/20 07:04:15;;;;;;;12.23;3.20;;;8.30;65.90;;;;;;4969335;28;20203;-81
2021/12/20 07:06:41;;;;;;;21.45;3.80;;;8.40;65.20;;;;;;4973890;28;20180;-82
2021/12/20 07:09:08;;;;;;;17.65;2.75;;;8.60;65.00;;;;;;4980040;28;20220;-81
2021/12/20 07:11:34;;;;;;;17.50;2.63;;;8.30;64.50;;;;;;4985652;28;20196;-83
2021/12/20 07:14:00;;;;;;;17.17;3.10;;;8.40;64.40;;;;;;4978559;28;20235;-80
2021/12/20 07:16:26;;;;;;;11.80;1.97;;;8.50;63.90;;;;;;4969776;28;20459;-81
2021/12/20 07:18:51;;;;;;;12.00;2.87;;;8.50;63.40;;;;;;4964873;28;20186;-81
2021/12/20 07:21:18;;;;;;;16.93;3.20;;;8.50;63.60;;;;;;4976832;28;20646;-82
2021/12/20 07:23:44;;;;;;;9.77;2.80;;;8.50;63.50;;;;;;4965876;28;20176;-81
2021/12/20 07:26:11;;;;;;;21.30;3.60;;;8.30;64.10;;;;;;4966702;28;20219;-82
2021/12/20 07:28:40;;;;;;;21.17;3.55;;;8.40;64.50;;;;;;4960368;28;20180;-81
2021/12/20 07:31:06;;;;;;;9.35;2.92;;;8.40;64.70;;;;;;4944355;29;20555;-81
2021/12/20 07:33:32;;;;;;;28.13;3.77;;;8.30;65.00;;;;;;4968628;28;20275;-81
2021/12/20 07:35:57;;;;;;;13.77;3.17;;;8.30;65.30;;;;;;4963014;28;20483;-81
2021/12/20 07:38:23;;;;;;;20.37;3.70;;;8.10;66.00;;;;;;4973436;28;20184;-81
2021/12/20 07:40:50;;;;;;;13.15;2.63;;;8.30;66.30;;;;;;4971434;28;20199;-81
2021/12/20 07:43:18;;;;;;;16.88;3.10;;;8.30;66.10;;;;;;4969686;28;20650;-82
2021/12/20 07:45:47;;;;;;;18.50;2.67;;;8.10;66.10;;;;;;4971108;28;20184;-82
2021/12/20 07:48:17;;;;;;;15.60;3.60;;;8.10;65.80;;;;;;4973664;28;20198;-82
2021/12/20 07:50:43;;;;;;;13.02;3.75;;;8.30;65.60;;;;;;4958994;28;20300;-81
2021/12/20 07:53:09;;;;;;;12.05;3.08;;;8.20;65.40;;;;;;4972787;28;20227;-82
2021/12/20 07:55:35;;;;;;;15.50;3.70;;;8.40;64.80;;;;;;4972879;28;20208;-80
2021/12/20 07:58:01;;;;;;;17.88;3.65;;;8.50;64.40;;;;;;4974664;28;20527;-82
2021/12/20 08:00:27;;;;;;;19.33;3.27;;;8.70;64.10;;;;;;4980118;28;20200;-82
2021/12/20 08:02:55;;;;;;;20.88;4.82;;;8.50;63.80;;;;;;4963955;28;20431;-82
2021/12/20 08:05:20;;;;;;;23.05;3.10;;;8.70;63.60;;;;;;4970577;28;20639;-82
2021/12/20 08:07:50;;;;;;;11.10;3.70;;;8.60;63.20;;;;;;4971605;28;20207;-82
2021/12/20 08:10:20;;;;;;;11.55;2.85;;;8.50;63.20;;;;;;4963521;28;20188;-82
2021/12/20 08:12:46;;;;;;;17.45;3.70;;;8.50;63.20;;;;;;4977697;28;20173;-82
2021/12/20 08:15:13;;;;;;;20.13;4.57;;;8.80;63.00;;;;;;4964468;28;20199;-82
2021/12/20 08:17:39;;;;;;;18.48;3.83;;;8.90;62.40;;;;;;4971407;28;20796;-82
2021/12/20 08:20:06;;;;;;;11.68;3.65;;;9.00;61.80;;;;;;4966022;28;20208;-83
2021/12/20 08:22:32;;;;;;;9.00;3.15;;;8.90;61.00;;;;;;4971446;28;20212;-83
2021/12/20 08:24:58;;;;;;;22.20;3.90;;;8.80;60.70;;;;;;4974048;28;20231;-81
2021/12/20 08:27:24;;;;;;;13.50;4.53;;;8.80;60.80;;;;;;4974796;28;20851;-81
2021/12/20 08:29:50;;;;;;;16.25;3.30;;;8.90;61.10;;;;;;4955063;28;20514;-81
2021/12/20 08:32:16;;;;;;;19.07;4.37;;;8.90;61.00;;;;;;4969316;28;20235;-81
2021/12/20 08:34:43;;;;;;;9.82;3.33;;;9.00;60.80;;;;;;4977089;28;20439;-81
2021/12/20 08:37:08;;;;;;;8.70;4.43;;;9.20;60.80;;;;;;4974197;28;20210;-81
2021/12/20 08:39:34;;;;;;;15.77;3.60;;;9.30;60.50;;;;;;4972344;28;20176;-82
2021/12/20 08:42:03;;;;;;;19.40;4.27;;;9.20;60.30;;;;;;4971697;28;20663;-81
2021/12/20 08:44:30;;;;;;;19.95;3.85;;;9.00;60.70;;;;;;4970727;28;20237;-82
2021/12/20 08:46:56;;;;;;;14.85;3.10;;;8.90;61.10;;;;;;4963378;28;20193;-82
2021/12/20 08:49:22;;;;;;;17.48;3.70;;;8.80;61.40;;;;;;4965241;28;20187;-81
2021/12/20 08:51:48;;;;;;;14.97;3.20;;;8.70;61.50;;;;;;4974750;28;20675;-82
2021/12/20 08:54:15;;;;;;;23.35;3.00;;;9.10;61.30;;;;;;4964605;28;20421;-82
2021/12/20 08:56:41;;;;;;;14.82;4.50;;;9.20;60.30;;;;;;4968768;28;20222;-82
2021/12/20 08:59:08;;;;;;;8.18;3.80;;;9.00;60.30;;;;;;4964766;28;20651;-82
2021/12/20 09:01:35;;;;;;;11.93;3.38;;;8.70;61.00;;;;;;4971178;28;20209;-82
2021/12/20 09:04:03;;;;;;;16.55;4.72;;;8.60;61.20;;;;;;4970818;28;20196;-82
2021/12/20 09:06:30;;;;;;;10.40;3.53;;;8.60;61.50;;;;;;4955287;28;20192;-82
2021/12/20 09:08:57;;;;;;;11.95;2.50;;;8.70;61.80;;;;;;4976459;28;20184;-82
2021/12/20 09:11:25;;;;;;;14.13;2.92;;;9.00;61.40;;;;;;4967166;28;20208;-82
2021/12/20 09:13:52;;;;;;;19.00;3.53;;;9.00;60.80;;;;;;4970804;28;20188;-82
2021/12/20 09:16:19;;;;;;;15.95;3.83;;;9.10;60.00;;;;;;4948721;29;20224;-81
2021/12/20 09:18:45;;;;;;;15.30;3.40;;;9.00;59.70;;;;;;4967047;28;20180;-83
2021/12/20 09:21:11;;;;;;;25.35;3.67;;;9.10;59.30;;;;;;4964106;28;20200;-82
2021/12/20 09:23:38;;;;;;;15.38;3.63;;;9.00;58.50;;;;;;4971593;28;20183;-81
2021/12/20 09:26:05;;;;;;;13.73;2.92;;;9.00;58.20;;;;;;4963188;28;20629;-82
2021/12/20 09:28:31;;;;;;;13.38;2.53;;;8.80;58.20;;;;;;4975756;28;20730;-82
2021/12/20 09:30:57;;;;;;;6.43;2.35;;;8.60;58.30;;;;;;4969074;28;20209;-82
2021/12/20 09:33:24;;;;;;;16.40;2.58;;;8.60;58.30;;;;;;4965588;28;20214;-82
2021/12/20 09:35:51;;;;;;;16.58;3.67;;;8.70;59.00;;;;;;4970888;28;20279;-82
2021/12/20 09:38:18;;;;;;;14.35;2.47;;;8.90;57.70;;;;;;4962844;28;20198;-82
2021/12/20 09:41:12;;;;;;;15.15;3.33;;;9.10;57.30;;;;;;4961964;28;20231;-82
2021/12/20 09:43:33;;;;;;;15.88;3.80;;;9.10;56.00;;;;;;4970276;28;20659;-82
2021/12/20 09:45:59;;;;;;;10.52;3.00;;;9.20;55.70;;;;;;4967821;28;20196;-81
2021/12/20 09:48:25;;;;;;;15.07;2.77;;;9.30;55.10;;;;;;4967595;28;20259;-82
2021/12/20 09:50:51;;;;;;;12.13;2.72;;;9.30;55.10;;;;;;4950826;29;20462;-82
2021/12/20 09:53:17;;;;;;;15.73;2.83;;;9.30;55.00;;;;;;4972442;28;20241;-84
2021/12/20 09:55:48;;;;;;;13.90;4.03;;;9.40;54.80;;;;;;4973959;28;20220;-82
2021/12/20 09:58:15;;;;;;;5.43;2.42;;;9.40;54.90;;;;;;4962491;28;20185;-82
2021/12/20 10:00:41;;;;;;;22.35;3.45;;;9.40;55.10;;;;;;4974999;28;20204;-82
2021/12/20 10:03:08;;;;;;;10.23;2.90;;;9.20;55.80;;;;;;4971471;28;20304;-82
2021/12/20 10:05:35;;;;;;;6.60;3.22;;;9.00;56.40;;;;;;4973276;28;20195;-82
2021/12/20 10:08:09;;;;;;;14.30;3.10;;;9.10;57.00;;;;;;4952312;28;20189;-82
2021/12/20 10:10:45;;;;;;;9.38;2.75;;;9.10;57.30;;;;;;4969209;28;20211;-80
2021/12/20 10:13:30;;;;;;;13.45;3.45;;;8.80;58.10;;;;;;4968595;28;20184;-82
2021/12/20 10:15:58;;;;;;;14.60;3.15;;;9.00;58.40;;;;;;4971635;28;20267;-81
2021/12/20 10:18:44;;;;;;;16.55;4.68;;;9.10;58.40;;;;;;4970885;28;20220;-82
2021/12/20 10:21:10;;;;;;;13.95;3.95;;;9.10;58.40;;;;;;4926516;29;20216;-81
2021/12/20 10:23:42;;;;;;;15.60;3.23;;;9.30;58.60;;;;;;4941540;29;20193;-81
2021/12/20 10:26:14;;;;;;;9.57;3.53;;;9.20;58.30;;;;;;4927546;29;20503;-81
2021/12/20 10:28:41;;;;;;;13.63;2.83;;;9.30;58.80;;;;;;4941576;29;20193;-82
2021/12/20 10:31:10;;;;;;;20.02;3.78;;;9.30;59.00;;;;;;4922092;29;20276;-81
2021/12/20 10:33:37;;;;;;;15.35;4.03;;;9.20;59.30;;;;;;4933963;29;20197;-81
2021/12/20 10:36:13;;;;;;;14.45;3.50;;;9.40;59.50;;;;;;4924611;29;20206;-81
2021/12/20 10:38:49;;;;;;;23.35;4.35;;;9.40;59.20;;;;;;4924872;29;20177;-81
2021/12/20 10:41:33;;;;;;;11.38;3.17;;;9.40;59.20;;;;;;4940964;29;20208;-82
2021/12/20 10:44:02;;;;;;;16.60;3.20;;;9.50;58.90;;;;;;4924611;29;20184;-81
2021/12/20 10:46:30;;;;;;;10.05;3.38;;;9.60;59.00;;;;;;4925088;29;20278;-81
2021/12/20 10:49:14;;;;;;;22.33;5.05;;;9.80;58.70;;;;;;4925027;29;20186;-81
2021/12/20 10:51:59;;;;;;;9.82;3.22;;;9.70;58.50;;;;;;4933326;28;20228;-81
2021/12/20 10:54:31;;;;;;;14.63;3.40;;;9.50;58.80;;;;;;4970358;28;20273;-81
2021/12/20 10:57:05;;;;;;;15.15;4.00;;;9.40;59.20;;;;;;4973999;28;20221;-81
2021/12/20 10:59:35;;;;;;;12.00;3.67;;;9.40;60.50;;;;;;4970465;28;20263;-82
2021/12/20 11:04:59;;;;;;;22.33;3.42;;;9.40;59.60;;;;;;4962393;28;20256;-81
2021/12/20 11:10:00;;;;;;;8.88;2.72;;;9.60;60.00;;;;;;4968543;28;20179;-81
2021/12/20 11:12:33;;;;;;;12.05;3.20;;;9.50;60.10;;;;;;4972214;28;20581;-81
2021/12/20 11:15:11;;;;;;;15.23;3.85;;;9.40;60.00;;;;;;4970183;28;20176;-81
2021/12/20 11:17:41;;;;;;;21.92;3.75;;;9.50;60.00;;;;;;4973930;28;20725;-82
2021/12/20 11:20:07;;;;;;;10.73;3.15;;;9.50;59.40;;;;;;4972066;28;20184;-82
2021/12/20 11:22:34;;;;;;;8.45;2.83;;;9.50;59.20;;;;;;4982173;28;20183;-82
2021/12/20 11:25:04;;;;;;;17.08;4.28;;;9.60;58.90;;;;;;4978986;28;20188;-83
2021/12/20 11:27:36;;;;;;;15.07;3.78;;;9.50;58.50;;;;;;4980436;28;20157;-83
2021/12/20 11:30:15;;;;;;;7.03;2.53;;;9.40;58.10;;;;;;4978940;28;20203;-83
2021/12/20 11:32:42;;;;;;;11.10;3.22;;;9.50;58.60;;;;;;4973751;28;20203;-83
2021/12/20 11:35:08;;;;;;;9.30;2.95;;;9.50;58.80;;;;;;4982819;28;20184;-81
2021/12/20 11:37:35;;;;;;;6.20;2.63;;;9.70;58.70;;;;;;4962937;28;20187;-81
2021/12/20 11:40:03;;;;;;;13.02;2.80;;;9.70;57.30;;;;;;4982723;28;20183;-81
2021/12/20 11:42:29;;;;;;;9.40;2.30;;;9.60;56.40;;;;;;4983438;28;20606;-81
2021/12/20 11:44:58;;;;;;;3.97;1.87;;;9.60;56.30;;;;;;4980062;28;20215;-81
2021/12/20 11:47:51;;;;;;;22.33;7.30;;;9.60;56.30;;;;;;4978786;28;20436;-83
2021/12/20 11:50:20;;;;;;;4.20;1.98;;;9.60;55.70;;;;;;4973693;28;20188;-82
2021/12/20 11:52:48;;;;;;;10.73;2.97;;;9.60;55.90;;;;;;4978411;28;20260;-82
2021/12/20 11:55:28;;;;;;;8.52;1.95;;;9.60;55.70;;;;;;4974888;28;20187;-82
2021/12/20 11:57:59;;;;;;;11.65;2.03;;;9.60;55.80;;;;;;4960390;28;20270;-82
2021/12/20 12:00:38;;;;;;;7.63;2.33;;;9.50;55.80;;;;;;4980622;28;20185;-83
2021/12/20 12:03:15;;;;;;;17.75;2.38;;;9.60;55.60;;;;;;4952307;29;20189;-83
2021/12/20 12:05:50;;;;;;;10.43;1.95;;;9.50;55.80;;;;;;4974850;28;20196;-82
2021/12/20 12:08:40;;;;;;;7.70;2.03;;;9.60;56.00;;;;;;4957756;28;20183;-81
2021/12/20 12:11:09;;;;;;;2.38;1.60;;;9.70;55.20;;;;;;4968378;28;20206;-82
2021/12/20 12:13:57;;;;;;;5.97;2.08;;;9.60;54.50;;;;;;4973429;28;20194;-82
2021/12/20 12:16:29;;;;;;;16.55;2.75;;;9.60;54.40;;;;;;4962728;28;20215;-82
2021/12/20 12:18:58;;;;;;;6.72;2.33;;;9.60;54.50;;;;;;4977365;28;20271;-83
2021/12/20 12:21:50;;;;;;;6.63;2.92;;;9.60;54.90;;;;;;4971415;28;20215;-83
2021/12/20 12:24:36;;;;;;;10.23;2.80;;;9.60;55.10;;;;;;4971484;28;20188;-83
2021/12/20 12:27:22;;;;;;;17.88;2.75;;;9.60;54.40;;;;;;4972879;28;20219;-83
2021/12/20 12:30:13;;;;;;;13.75;3.72;;;9.50;54.50;;;;;;4973132;28;20180;-83
2021/12/20 12:32:48;;;;;;;16.40;3.60;;;9.40;54.80;;;;;;4976071;28;20199;-82
2021/12/20 12:35:39;;;;;;;14.85;4.25;;;9.40;53.70;;;;;;4976049;28;20687;-82
2021/12/20 12:38:17;;;;;;;6.40;3.70;;;9.50;53.40;;;;;;4959980;28;20185;-82
2021/12/20 12:41:03;;;;;;;11.52;3.05;;;9.50;53.80;;;;;;4968675;28;20232;-81
2021/12/20 12:43:54;;;;;;;7.50;2.75;;;9.50;54.40;;;;;;4966883;28;20184;-81
2021/12/20 12:46:40;;;;;;;5.13;2.17;;;9.60;54.80;;;;;;4970267;28;20574;-81
2021/12/20 12:49:21;;;;;;;12.95;2.75;;;9.60;55.40;;;;;;4962736;28;20199;-81
2021/12/20 12:51:49;;;;;;;16.65;4.30;;;9.40;54.90;;;;;;4965586;28;20200;-81
2021/12/20 12:54:39;;;;;;;18.90;3.97;;;9.50;54.70;;;;;;4976655;28;20286;-81
2021/12/20 12:57:10;;;;;;;13.35;3.60;;;9.50;54.40;;;;;;4970749;28;20516;-81
2021/12/20 13:00:07;;;;;;;5.55;2.13;;;9.40;54.20;;;;;;4971801;28;20188;-81
2021/12/20 13:02:43;;;;;;;6.65;3.22;;;9.20;54.20;;;;;;4973388;28;20556;-81
2021/12/20 13:05:14;;;;;;;7.78;3.03;;;9.20;55.70;;;;;;4972058;28;20701;-81
2021/12/20 13:07:45;;;;;;;15.85;5.07;;;9.20;54.80;;;;;;4967916;28;20207;-81
2021/12/20 13:10:16;;;;;;;14.40;4.55;;;9.30;54.90;;;;;;4965398;28;20173;-81
2021/12/20 13:12:48;;;;;;;6.88;4.00;;;9.40;54.80;;;;;;4971236;28;20258;-82
2021/12/20 13:15:32;;;;;;;18.05;2.70;;;9.40;54.80;;;;;;4971611;28;20176;-81
2021/12/20 13:18:07;;;;;;;12.50;4.13;;;9.40;54.40;;;;;;4970854;28;20266;-82
2021/12/20 13:20:50;;;;;;;12.00;3.50;;;9.30;54.60;;;;;;4970915;28;20238;-81
2021/12/20 13:23:43;;;;;;;10.05;3.22;;;9.40;54.70;;;;;;4969380;28;20176;-82
2021/12/20 13:26:13;;;;;;;9.57;2.88;;;9.40;54.60;;;;;;4970229;28;20181;-81
2021/12/20 13:28:47;;;;;;;13.27;3.80;;;9.30;54.50;;;;;;4971317;28;20212;-81
2021/12/20 13:31:16;;;;;;;9.88;2.80;;;9.40;54.50;;;;;;4968052;28;20683;-81
2021/12/20 13:33:47;;;;;;;9.63;3.05;;;9.40;54.50;;;;;;4969195;28;20648;-81
2021/12/20 13:36:15;;;;;;;19.85;3.20;;;9.20;54.20;;;;;;4950436;28;20271;-81
2021/12/20 13:38:52;;;;;;;10.80;3.30;;;9.20;54.60;;;;;;4980392;28;20195;-81
2021/12/20 13:41:24;;;;;;;16.73;5.25;;;9.20;54.40;;;;;;4975120;28;20200;-80
2021/12/20 13:43:55;;;;;;;10.85;3.45;;;9.40;54.60;;;;;;4971742;28;20191;-81
2021/12/20 13:49:21;;;;;;;12.52;3.03;;;9.20;56.70;;;;;;4962801;28;20817;-80
2021/12/20 13:51:53;;;;;;;7.47;2.97;;;9.10;57.80;;;;;;4968462;28;20208;-81
2021/12/20 13:54:23;;;;;;;11.00;3.63;;;9.20;58.00;;;;;;4965348;28;20257;-81
2021/12/20 13:56:55;;;;;;;18.52;3.58;;;8.90;57.90;;;;;;4971333;28;20243;-81
2021/12/20 13:59:28;;;;;;;12.65;4.20;;;8.80;58.70;;;;;;4958553;28;20184;-81
2021/12/20 14:01:56;;;;;;;7.55;3.40;;;9.00;59.10;;;;;;4968819;28;21683;-82
2021/12/20 14:04:35;;;;;;;7.85;2.20;;;9.10;59.50;;;;;;4973186;28;20191;-81
2021/12/20 14:07:03;;;;;;;14.43;3.67;;;9.10;58.90;;;;;;4972145;28;20207;-82
2021/12/20 14:09:40;;;;;;;8.95;4.07;;;9.00;58.80;;;;;;4970205;28;20179;-82
2021/12/20 14:12:12;;;;;;;15.05;4.65;;;9.10;58.90;;;;;;4970808;28;20316;-81
2021/12/20 14:14:55;;;;;;;6.68;4.30;;;9.10;56.60;;;;;;4958547;28;20168;-82
2021/12/20 14:17:21;;;;;;;13.05;4.20;;;8.90;55.00;;;;;;4972735;28;20204;-81
2021/12/20 14:20:03;;;;;;;8.97;4.50;;;8.80;53.60;;;;;;4966375;28;20262;-81
2021/12/20 14:22:30;;;;;;;12.20;4.53;;;8.60;52.20;;;;;;4968718;28;20207;-82
2021/12/20 14:25:07;;;;;;;12.43;3.75;;;8.50;52.30;;;;;;4972562;28;20184;-82
2021/12/20 14:27:36;;;;;;;12.10;3.55;;;8.90;51.80;;;;;;4976950;28;20187;-81
2021/12/20 14:30:20;;;;;;;7.97;3.80;;;9.00;51.30;;;;;;4964110;28;20682;-81
2021/12/20 14:32:48;;;;;;;10.20;3.72;;;8.80;50.70;;;;;;4969737;28;20761;-81
2021/12/20 14:35:38;;;;;;;8.65;3.60;;;9.00;52.70;;;;;;4969906;28;20203;-81
2021/12/20 14:38:31;;;;;;;12.43;4.47;;;9.20;51.40;;;;;;4972419;28;20227;-81
2021/12/20 14:40:57;;;;;;;7.10;4.75;;;8.90;51.20;;;;;;4971167;28;20217;-82
2021/12/20 14:43:30;;;;;;;10.05;4.82;;;8.80;50.70;;;;;;4972109;28;20622;-81
2021/12/20 14:46:36;;;;;;;7.72;4.03;;;8.60;51.30;;;;;;4969677;28;20616;-81
2021/12/20 14:49:20;;;;;;;13.45;4.13;;;8.90;51.40;;;;;;4950817;28;20238;-81
2021/12/20 14:51:48;;;;;;;9.20;5.65;;;8.90;50.50;;;;;;4968351;28;20572;-82
2021/12/20 14:54:24;;;;;;;11.25;4.20;;;8.80;50.60;;;;;;4966161;28;20188;-82
2021/12/20 14:56:59;;;;;;;7.43;4.35;;;8.70;50.50;;;;;;4967268;28;20239;-83
2021/12/20 14:59:31;;;;;;;4.95;3.25;;;8.70;50.50;;;;;;4966193;28;20207;-83
2021/12/20 15:02:00;;;;;;;5.88;2.22;;;8.80;50.20;;;;;;4955542;28;20208;-83
2021/12/20 15:04:27;;;;;;;9.75;5.30;;;9.00;49.90;;;;;;4974363;28;20171;-81
2021/12/20 15:06:55;;;;;;;12.00;5.55;;;8.80;49.30;;;;;;4970999;28;20271;-81
2021/12/20 15:09:26;;;;;;;14.73;5.82;;;8.70;49.80;;;;;;4960578;28;20188;-81
2021/12/20 15:11:53;;;;;;;8.73;3.25;;;8.50;50.40;;;;;;4957030;28;20203;-80
2021/12/20 15:14:19;;;;;;;6.90;3.58;;;8.40;50.60;;;;;;4971785;28;20172;-81
2021/12/20 15:16:45;;;;;;;11.43;3.35;;;8.50;50.40;;;;;;4970966;28;20199;-81
2021/12/20 15:19:12;;;;;;;6.38;2.47;;;8.50;50.60;;;;;;4968324;28;20183;-81
2021/12/20 15:21:37;;;;;;;11.88;3.90;;;8.30;50.70;;;;;;4968491;28;20200;-81
2021/12/20 15:24:07;;;;;;;7.60;4.17;;;8.30;51.00;;;;;;4968452;28;20180;-81
2021/12/20 15:26:33;;;;;;;10.70;3.72;;;8.40;50.90;;;;;;4968954;28;20419;-81
2021/12/20 15:29:01;;;;;;;10.10;4.17;;;8.30;51.40;;;;;;4971440;28;20298;-82
2021/12/20 15:31:28;;;;;;;9.60;5.70;;;8.30;51.30;;;;;;4971802;28;20443;-81
2021/12/20 15:33:54;;;;;;;17.27;4.43;;;8.50;51.30;;;;;;4974703;28;20193;-81
2021/12/20 15:36:22;;;;;;;6.13;2.73;;;8.30;51.20;;;;;;4968330;28;20658;-81
2021/12/20 15:38:48;;;;;;;9.93;2.10;;;8.40;51.10;;;;;;4968875;28;20173;-81
2021/12/20 15:41:14;;;;;;;3.35;2.28;;;8.30;51.10;;;;;;4951219;28;20227;-81
2021/12/20 15:43:40;;;;;;;3.20;2.20;;;8.20;51.20;;;;;;4963900;28;20192;-81
2021/12/20 15:46:05;;;;;;;12.80;3.87;;;8.40;51.40;;;;;;4971023;28;20438;-81
2021/12/20 15:48:31;;;;;;;14.37;4.70;;;8.30;51.80;;;;;;4976889;28;20180;-81
2021/12/20 15:50:57;;;;;;;9.43;3.43;;;8.40;52.20;;;;;;4978373;28;20201;-82
2021/12/20 15:53:26;;;;;;;6.10;3.50;;;8.20;52.30;;;;;;4970026;28;20919;-82
2021/12/20 15:55:53;;;;;;;6.80;3.22;;;8.40;52.60;;;;;;4964859;29;20467;-82
2021/12/20 15:58:19;;;;;;;5.28;2.50;;;8.40;52.20;;;;;;4967875;29;20184;-82
2021/12/20 16:00:44;;;;;;;7.30;4.80;;;8.40;51.60;;;;;;4966313;29;20259;-82
2021/12/20 16:03:10;;;;;;;17.40;4.47;;;8.50;51.80;;;;;;4966198;29;20207;-82
2021/12/20 16:05:36;;;;;;;17.63;4.63;;;8.70;51.50;;;;;;4963392;28;20180;-82
2021/12/20 16:08:03;;;;;;;4.33;3.00;;;8.70;51.40;;;;;;4963683;29;20428;-81
2021/12/20 16:10:29;;;;;;;13.27;3.00;;;8.50;51.90;;;;;;4945348;29;20507;-82
2021/12/20 16:12:55;;;;;;;8.67;3.37;;;8.50;51.70;;;;;;4960890;28;20193;-81
2021/12/20 16:15:20;;;;;;;8.63;2.20;;;8.60;51.70;;;;;;4964326;29;20253;-82
2021/12/20 16:17:50;;;;;;;13.43;3.70;;;8.60;51.70;;;;;;4946993;29;20188;-82
2021/12/20 16:20:18;;;;;;;6.30;2.60;;;8.60;51.70;;;;;;4963790;28;20959;-82
2021/12/20 16:22:44;;;;;;;7.72;2.88;;;8.30;52.10;;;;;;4969419;28;20192;-82
2021/12/20 16:25:14;;;;;;;11.27;3.78;;;8.30;52.20;;;;;;4970576;28;20235;-82
2021/12/20 16:27:42;;;;;;;9.85;3.80;;;8.70;52.10;;;;;;4970791;28;20179;-81
2021/12/20 16:30:12;;;;;;;3.78;2.75;;;8.80;51.80;;;;;;4965942;28;20175;-82
2021/12/20 16:32:38;;;;;;;5.05;3.13;;;8.80;51.40;;;;;;4970695;28;20199;-82
2021/12/20 16:35:07;;;;;;;10.07;2.90;;;8.70;51.50;;;;;;4971762;28;20243;-82
2021/12/20 16:37:33;;;;;;;8.73;2.70;;;8.70;51.60;;;;;;4970585;28;20208;-82
2021/12/20 16:39:59;;;;;;;8.07;3.57;;;8.60;51.70;;;;;;4971445;28;20578;-82
2021/12/20 16:42:25;;;;;;;5.20;2.90;;;8.60;51.60;;;;;;4971615;28;20454;-82
2021/12/20 16:44:53;;;;;;;9.30;3.00;;;8.60;51.50;;;;;;4968711;28;20444;-81
2021/12/20 16:47:22;;;;;;;7.45;2.80;;;8.60;51.30;;;;;;4972131;28;20271;-82
2021/12/20 16:49:50;;;;;;;7.38;3.40;;;8.70;50.60;;;;;;4966884;28;20199;-81
2021/12/20 16:52:18;;;;;;;10.80;3.70;;;8.70;50.60;;;;;;4969925;28;20286;-81
2021/12/20 16:54:46;;;;;;;13.02;4.13;;;8.70;50.80;;;;;;4968533;28;20565;-82
2021/12/20 16:57:13;;;;;;;17.33;5.28;;;8.50;51.10;;;;;;4966416;28;20694;-81
2021/12/20 16:59:41;;;;;;;12.35;3.97;;;8.50;51.80;;;;;;4969583;28;20173;-81
2021/12/20 17:02:10;;;;;;;17.95;4.85;;;8.40;51.80;;;;;;4955254;28;20607;-81
2021/12/20 17:04:40;;;;;;;9.10;3.53;;;8.40;51.90;;;;;;4969690;28;20240;-80
2021/12/20 17:07:07;;;;;;;16.55;4.60;;;8.40;51.70;;;;;;4964081;28;20181;-80
2021/12/20 17:09:34;;;;;;;10.57;4.70;;;8.50;52.00;;;;;;4962579;29;20248;-81
2021/12/20 17:11:59;;;;;;;29.33;9.10;;;8.70;52.10;;;;;;4962366;29;20212;-81
2021/12/20 17:14:25;;;;;;;18.50;6.40;;;8.70;52.10;;;;;;4966557;29;20183;-81
2021/12/20 17:16:51;;;;;;;8.60;4.87;;;8.50;52.20;;;;;;4967923;29;20207;-81
2021/12/20 17:19:16;;;;;;;17.63;6.20;;;8.60;52.30;;;;;;4962483;29;20496;-81
2021/12/20 17:21:42;;;;;;;13.67;4.70;;;8.50;52.30;;;;;;4960343;29;20441;-81
2021/12/20 17:24:10;;;;;;;18.70;6.63;;;8.50;52.70;;;;;;4961839;28;20188;-81
2021/12/20 17:26:35;;;;;;;10.65;4.15;;;8.50;53.00;;;;;;4959328;29;20427;-81
2021/12/20 17:29:02;;;;;;;9.10;4.80;;;8.30;53.30;;;;;;4960189;29;20540;-82
2021/12/20 17:31:28;;;;;;;10.27;3.70;;;8.40;53.60;;;;;;4973446;28;20507;-83
2021/12/20 17:33:54;;;;;;;23.13;4.45;;;8.30;54.00;;;;;;4970766;28;20428;-82
2021/12/20 17:36:19;;;;;;;14.70;4.27;;;8.10;54.20;;;;;;4970359;28;20251;-81
2021/12/20 17:38:45;;;;;;;6.30;3.40;;;8.10;54.40;;;;;;4974013;28;20448;-82
2021/12/20 17:41:11;;;;;;;13.67;4.10;;;7.90;54.90;;;;;;4975278;28;20198;-83
2021/12/20 17:43:38;;;;;;;12.00;4.30;;;7.70;55.50;;;;;;4976812;28;20411;-84
2021/12/20 17:46:03;;;;;;;21.05;4.63;;;7.60;55.80;;;;;;4979802;28;20412;-83
2021/12/20 17:48:29;;;;;;;13.38;4.20;;;7.80;55.80;;;;;;4966826;28;20195;-83
2021/12/20 17:50:56;;;;;;;10.20;4.67;;;7.90;55.70;;;;;;4973970;28;20208;-84
2021/12/20 17:53:22;;;;;;;5.53;3.72;;;7.80;55.60;;;;;;4972834;28;20181;-84
2021/12/20 17:55:48;;;;;;;9.23;4.47;;;7.70;55.80;;;;;;4970920;28;20199;-83
2021/12/20 17:58:14;;;;;;;12.70;4.70;;;7.80;55.90;;;;;;4971768;28;20515;-86
2021/12/20 18:00:41;;;;;;;18.98;5.10;;;7.80;56.10;;;;;;4972835;28;20193;-83
2021/12/20 18:03:07;;;;;;;11.68;4.65;;;8.00;56.00;;;;;;4955325;28;20176;-83
2021/12/20 18:05:33;;;;;;;18.33;7.43;;;7.90;55.70;;;;;;4965108;28;20187;-82
2021/12/20 18:07:59;;;;;;;19.10;6.88;;;8.10;55.70;;;;;;4972441;28;20180;-81
2021/12/20 18:10:26;;;;;;;21.10;6.35;;;8.20;55.50;;;;;;4973813;28;20196;-84
2021/12/20 18:12:54;;;;;;;9.63;4.63;;;8.10;55.60;;;;;;4975159;28;20181;-83
2021/12/20 18:15:20;;;;;;;12.20;5.25;;;8.00;55.70;;;;;;4970348;28;20248;-83
2021/12/20 18:17:47;;;;;;;15.83;5.10;;;7.90;56.10;;;;;;4969185;28;20204;-83
2021/12/20 18:20:17;;;;;;;10.25;4.55;;;8.00;56.40;;;;;;4965448;28;20245;-82
2021/12/20 18:22:44;;;;;;;11.15;4.60;;;8.00;56.20;;;;;;4965600;28;20223;-81
2021/12/20 18:25:09;;;;;;;10.68;4.50;;;8.00;56.10;;;;;;4967682;28;20179;-81
2021/12/20 18:27:38;;;;;;;12.23;5.07;;;8.00;56.00;;;;;;4975195;28;20188;-81
2021/12/20 18:30:08;;;;;;;15.10;5.53;;;7.90;56.10;;;;;;4978311;28;20419;-83
2021/12/20 18:32:34;;;;;;;14.82;4.72;;;7.90;56.40;;;;;;4981738;28;20202;-80